Time;durP1;ratioP1;P1;durP2;ratioP2;P2;SDS_P1;SDS_P2;PMS_P1;PMS_P2;Temp;Humidity;BMP_temperature;BMP_pressure;BME280_temperature;BME280_humidity;BME280_pressure;Samples;Min_cycle;Max_cycle;Signal;HPM_P1;HPM_P2
2022/03/21 00:00:36;;;;;;;;;67.25;49.00;;;;;11.06;100.00;102422.16;5062606;28;45407;-74
2022/03/21 00:03:02;;;;;;;;;64.00;51.00;;;;;11.04;100.00;102415.94;5059950;28;45407;-78
2022/03/21 00:05:30;;;;;;;;;62.00;51.00;;;;;11.06;100.00;102433.63;5077179;28;45324;-76
2022/03/21 00:07:57;;;;;;;;;69.00;49.50;;;;;10.93;100.00;102411.19;5060363;28;47816;-76
2022/03/21 00:10:22;;;;;;;;;69.50;51.50;;;;;10.93;100.00;102419.13;5045679;28;46453;-75
2022/03/21 00:12:49;;;;;;;;;68.00;51.25;;;;;11.01;100.00;102428.19;5052022;28;45549;-75
2022/03/21 00:15:15;;;;;;;;;66.50;49.25;;;;;10.98;100.00;102432.50;5042104;28;45363;-76
2022/03/21 00:17:41;;;;;;;;;61.25;48.00;;;;;10.98;100.00;102433.38;5065464;28;47934;-74
2022/03/21 00:20:15;;;;;;;;;66.00;50.25;;;;;11.00;100.00;102439.63;5059928;28;45321;-74
2022/03/21 00:22:41;;;;;;;;;66.50;51.00;;;;;10.95;100.00;102435.00;5056841;28;45548;-75
2022/03/21 00:25:08;;;;;;;;;62.50;49.00;;;;;10.95;100.00;102437.66;5056370;28;48893;-75
2022/03/21 00:27:34;;;;;;;;;61.25;47.75;;;;;10.93;100.00;102429.69;5067045;28;45897;-74
2022/03/21 00:29:59;;;;;;;;;67.50;50.25;;;;;10.90;100.00;102428.66;5041224;28;46299;-74
2022/03/21 00:32:25;;;;;;;;;70.75;53.25;;;;;10.94;100.00;102427.94;5059629;28;45178;-75
2022/03/21 00:34:50;;;;;;;;;67.25;50.00;;;;;10.94;100.00;102433.22;5075636;28;51340;-75
2022/03/21 00:37:16;;;;;;;;;66.75;50.75;;;;;10.94;100.00;102442.03;5077748;28;46534;-76
2022/03/21 00:39:41;;;;;;;;;66.75;50.00;;;;;10.93;100.00;102439.34;5076729;28;45356;-78
2022/03/21 00:42:10;;;;;;;;;67.50;50.25;;;;;10.83;100.00;102417.00;5076209;28;45843;-74
2022/03/21 00:44:35;;;;;;;;;74.00;54.75;;;;;10.87;100.00;102433.88;5060499;28;45485;-74
2022/03/21 00:47:01;;;;;;;;;69.75;51.75;;;;;10.87;100.00;102429.47;5052279;28;45529;-74
2022/03/21 00:49:26;;;;;;;;;69.00;52.50;;;;;10.87;100.00;102429.47;5046836;28;57411;-74
2022/03/21 00:51:51;;;;;;;;;67.75;51.00;;;;;10.84;100.00;102418.78;5075496;28;46919;-74
2022/03/21 00:54:17;;;;;;;;;71.50;53.75;;;;;10.82;100.00;102417.84;5058325;28;46947;-75
2022/03/21 00:56:42;;;;;;;;;69.75;52.75;;;;;10.81;100.00;102407.19;5075297;28;59101;-74
2022/03/21 00:59:08;;;;;;;;;73.00;56.00;;;;;10.86;100.00;102419.72;5058717;28;59875;-75
2022/03/21 01:01:33;;;;;;;;;69.75;51.50;;;;;10.86;100.00;102425.00;5071455;28;45490;-74
2022/03/21 01:03:58;;;;;;;;;70.00;52.25;;;;;10.83;100.00;102427.56;5072996;27;45507;-75
2022/03/21 01:06:24;;;;;;;;;72.75;53.25;;;;;10.80;100.00;102421.25;5048989;28;58786;-75
2022/03/21 01:08:49;;;;;;;;;61.50;47.50;;;;;10.83;100.00;102438.13;5072364;28;46383;-74
2022/03/21 01:11:15;;;;;;;;;67.75;52.00;;;;;10.81;100.00;102426.59;5058965;28;52842;-75
2022/03/21 01:13:42;;;;;;;;;71.50;53.00;;;;;10.81;100.00;102436.25;5076151;28;45266;-76
2022/03/21 01:16:08;;;;;;;;;68.00;51.50;;;;;10.78;100.00;102439.72;5059144;28;48489;-75
2022/03/21 01:18:34;;;;;;;;;65.50;51.25;;;;;10.79;100.00;102436.22;5055170;28;45779;-76
2022/03/21 01:20:59;;;;;;;;;72.00;54.25;;;;;10.76;100.00;102433.47;5069197;28;45477;-74
2022/03/21 01:23:24;;;;;;;;;71.00;54.00;;;;;10.75;100.00;102426.38;5056087;28;50560;-75
2022/03/21 01:25:50;;;;;;;;;69.25;53.75;;;;;10.73;100.00;102433.34;5077151;28;46170;-74
2022/03/21 01:28:15;;;;;;;;;66.00;51.25;;;;;10.72;100.00;102423.63;5076342;28;55764;-74
2022/03/21 01:30:41;;;;;;;;;65.50;49.00;;;;;10.71;100.00;102427.13;5075635;28;45283;-76
2022/03/21 01:33:07;;;;;;;;;66.50;51.50;;;;;10.71;100.00;102428.03;5058938;28;46953;-77
2022/03/21 01:35:32;;;;;;;;;60.00;48.00;;;;;10.67;100.00;102423.47;5073527;28;45896;-74
2022/03/21 01:37:58;;;;;;;;;71.75;51.25;;;;;10.44;100.00;102383.03;5058664;28;45539;-77
2022/03/21 01:40:23;;;;;;;;;74.25;54.50;;;;;10.56;100.00;102410.72;5092072;27;53504;-75
2022/03/21 01:42:49;;;;;;;;;64.50;48.75;;;;;10.60;100.00;102417.88;5058467;28;51945;-78
2022/03/21 01:45:14;;;;;;;;;72.75;55.25;;;;;10.61;100.00;102425.91;5075982;28;54554;-75
2022/03/21 01:47:41;;;;;;;;;65.75;51.25;;;;;10.65;100.00;102426.88;5068524;28;45237;-76
2022/03/21 01:50:07;;;;;;;;;69.00;53.00;;;;;10.65;100.00;102430.44;5069332;27;45391;-73
2022/03/21 01:52:33;;;;;;;;;68.50;53.00;;;;;10.64;100.00;102418.06;5045885;28;45359;-75
2022/03/21 01:57:43;;;;;;;;;66.50;49.50;;;;;10.70;100.00;102425.31;5076096;28;45233;-74
2022/03/21 02:00:09;;;;;;;;;64.75;49.75;;;;;10.72;100.00;102432.47;5058182;28;45525;-74
2022/03/21 02:02:34;;;;;;;;;63.75;48.25;;;;;10.71;100.00;102417.47;5052207;28;45386;-76
2022/03/21 02:04:59;;;;;;;;;65.25;48.50;;;;;10.80;100.00;102434.47;5054659;28;52246;-74
2022/03/21 02:07:25;;;;;;;;;64.25;48.75;;;;;10.86;100.00;102429.41;5074930;28;56045;-74
2022/03/21 02:09:50;;;;;;;;;63.00;49.25;;;;;10.93;100.00;102437.63;5062352;28;45516;-74
2022/03/21 02:12:16;;;;;;;;;62.25;49.00;;;;;10.93;100.00;102432.31;5055281;28;45435;-75
2022/03/21 02:14:41;;;;;;;;;65.00;51.25;;;;;10.97;100.00;102435.94;5064184;28;45949;-74
2022/03/21 02:17:10;;;;;;;;;68.00;49.75;;;;;10.89;100.00;102433.06;5057838;28;45381;-75
2022/03/21 02:19:37;;;;;;;;;68.25;52.00;;;;;10.89;100.00;102425.13;5062566;28;45475;-75
2022/03/21 02:22:30;;;;;;;;;61.25;49.75;;;;;10.89;100.00;102429.53;5065416;28;45267;-74
2022/03/21 02:25:13;;;;;;;;;68.50;50.00;;;;;10.86;100.00;102427.66;5059426;28;45512;-75
2022/03/21 02:27:39;;;;;;;;;59.75;46.50;;;;;10.82;100.00;102420.47;5059649;28;45263;-75
2022/03/21 02:30:05;;;;;;;;;67.00;50.50;;;;;10.70;100.00;102405.06;5062304;28;54568;-73
2022/03/21 02:32:30;;;;;;;;;63.75;48.50;;;;;10.69;100.00;102415.59;5067871;28;45357;-76
2022/03/21 02:34:56;;;;;;;;;65.75;51.25;;;;;10.63;100.00;102403.06;5060896;28;53839;-74
2022/03/21 02:37:21;;;;;;;;;64.50;49.25;;;;;10.72;100.00;102411.31;5077953;27;45275;-76
2022/03/21 02:39:48;;;;;;;;;70.00;53.50;;;;;10.70;100.00;102409.44;5095074;27;51671;-74
2022/03/21 02:42:14;;;;;;;;;66.00;49.75;;;;;10.69;100.00;102403.28;5078063;27;45513;-75
2022/03/21 02:44:39;;;;;;;;;67.25;50.25;;;;;10.67;100.00;102406.72;5077862;28;47396;-75
2022/03/21 02:47:05;;;;;;;;;64.00;49.00;;;;;10.65;100.00;102404.03;5077236;28;59087;-77
2022/03/21 02:49:31;;;;;;;;;65.00;49.00;;;;;10.66;100.00;102404.94;5061744;28;45337;-75
2022/03/21 02:51:59;;;;;;;;;53.25;46.00;;;;;10.62;100.00;102403.00;5077850;28;45497;-75
2022/03/21 02:54:28;;;;;;;;;65.00;48.75;;;;;10.53;100.00;102394.75;5078222;28;45500;-74
2022/03/21 02:56:54;;;;;;;;;62.25;47.75;;;;;10.62;100.00;102413.59;5073164;28;45335;-74
2022/03/21 02:59:20;;;;;;;;;55.25;46.25;;;;;10.59;100.00;102402.88;5058177;28;45325;-74
2022/03/21 03:01:45;;;;;;;;;69.50;50.00;;;;;10.47;100.00;102391.03;5058640;28;46583;-76
2022/03/21 03:04:11;;;;;;;;;62.00;48.25;;;;;10.43;100.00;102393.50;5057189;28;60851;-74
2022/03/21 03:06:39;;;;;;;;;70.25;47.50;;;;;10.51;100.00;102412.28;5057271;28;57262;-74
2022/03/21 03:09:07;;;;;;;;;65.75;49.50;;;;;10.51;100.00;102414.94;5077823;28;45257;-76
2022/03/21 03:11:36;;;;;;;;;63.50;50.25;;;;;10.46;100.00;102407.75;5073475;27;45386;-76
2022/03/21 03:14:02;;;;;;;;;63.75;47.75;;;;;10.37;100.00;102391.53;5059978;28;45462;-74
2022/03/21 03:16:28;;;;;;;;;62.75;50.00;;;;;10.46;100.00;102420.03;5077967;27;45307;-77
2022/03/21 03:18:53;;;;;;;;;70.50;51.50;;;;;10.42;100.00;102411.09;5094407;27;51425;-74
2022/03/21 03:21:19;;;;;;;;;60.75;47.75;;;;;10.41;100.00;102417.22;5079265;28;45364;-74
2022/03/21 03:23:44;;;;;;;;;66.25;49.50;;;;;10.37;100.00;102407.38;5058758;28;48249;-76
2022/03/21 03:26:10;;;;;;;;;65.25;48.50;;;;;10.39;100.00;102407.47;5076699;28;53802;-75
2022/03/21 03:28:35;;;;;;;;;64.75;47.50;;;;;10.40;100.00;102406.63;5078811;28;45401;-74
2022/03/21 03:31:00;;;;;;;;;69.00;48.00;;;;;10.38;100.00;102406.53;5069783;28;45222;-74
2022/03/21 03:33:26;;;;;;;;;63.25;47.75;;;;;10.36;100.00;102413.53;5056710;28;54498;-74
2022/03/21 03:35:52;;;;;;;;;59.50;47.25;;;;;10.37;100.00;102410.03;5057380;28;45486;-75
2022/03/21 03:38:17;;;;;;;;;62.25;45.25;;;;;10.37;100.00;102417.06;5076560;28;45534;-76
2022/03/21 03:40:43;;;;;;;;;66.00;50.25;;;;;10.39;100.00;102411.00;5077047;28;45526;-75
2022/03/21 03:43:10;;;;;;;;;62.75;50.00;;;;;10.33;100.00;102413.41;5094388;27;46786;-76
2022/03/21 03:45:36;;;;;;;;;59.50;47.00;;;;;10.40;100.00;102414.53;5057461;28;45545;-75
2022/03/21 03:48:02;;;;;;;;;59.75;46.00;;;;;10.44;100.00;102419.09;5040256;28;45260;-73
2022/03/21 03:50:27;;;;;;;;;55.25;45.00;;;;;10.47;100.00;102425.38;5081756;27;45589;-74
2022/03/21 03:52:53;;;;;;;;;60.75;47.00;;;;;10.51;100.00;102426.41;5076783;28;46426;-74
2022/03/21 03:55:18;;;;;;;;;63.75;49.50;;;;;10.53;100.00;102424.69;5078092;28;55555;-76
2022/03/21 03:57:44;;;;;;;;;59.50;46.25;;;;;10.59;100.00;102429.31;5077265;28;45252;-74
2022/03/21 04:00:10;;;;;;;;;63.50;48.00;;;;;10.34;100.00;102380.91;5060605;28;45275;-76
2022/03/21 04:03:44;;;;;;;;;59.00;46.75;;;;;10.55;100.00;102417.75;5076954;28;47688;-74
2022/03/21 04:05:21;;;;;;;;;61.25;48.75;;;;;10.68;100.00;102425.25;5053321;28;45447;-74
2022/03/21 04:07:48;;;;;;;;;59.75;47.75;;;;;10.70;100.00;102428.84;5057013;28;45246;-74
2022/03/21 04:10:13;;;;;;;;;60.50;45.00;;;;;10.68;100.00;102421.72;5071282;28;45574;-74
2022/03/21 04:12:39;;;;;;;;;59.75;49.00;;;;;10.78;100.00;102426.50;5058018;28;57380;-75
2022/03/21 04:15:04;;;;;;;;;62.75;49.50;;;;;10.81;100.00;102437.16;5055971;28;53264;-77
2022/03/21 04:17:30;;;;;;;;;59.50;44.75;;;;;10.83;100.00;102430.19;5062201;28;45342;-74
2022/03/21 04:19:55;;;;;;;;;64.50;47.50;;;;;10.85;100.00;102436.44;5076137;28;46282;-74
2022/03/21 04:22:21;;;;;;;;;66.25;49.75;;;;;10.83;100.00;102438.13;5077022;28;61630;-77
2022/03/21 04:24:46;;;;;;;;;62.75;46.75;;;;;10.81;100.00;102431.88;5057241;28;45346;-74
2022/03/21 04:27:11;;;;;;;;;59.00;47.50;;;;;10.88;100.00;102443.59;5056911;28;45917;-74
2022/03/21 04:29:37;;;;;;;;;66.25;49.00;;;;;10.92;100.00;102449.03;5057620;28;45384;-73
2022/03/21 04:32:03;;;;;;;;;58.50;46.50;;;;;10.92;100.00;102442.81;5055939;28;60481;-74
2022/03/21 04:34:28;;;;;;;;;57.50;43.00;;;;;10.96;100.00;102447.38;5069506;28;45786;-75
2022/03/21 04:36:54;;;;;;;;;55.00;43.50;;;;;10.94;100.00;102449.06;5053241;28;45258;-75
2022/03/21 04:39:19;;;;;;;;;66.25;50.25;;;;;10.98;100.00;102448.34;5071257;28;45265;-73
2022/03/21 04:41:45;;;;;;;;;63.75;47.50;;;;;10.98;100.00;102446.59;5093521;27;45513;-74
2022/03/21 04:44:11;;;;;;;;;64.25;48.00;;;;;10.90;100.00;102431.31;5076275;28;48675;-74
2022/03/21 04:46:36;;;;;;;;;63.75;48.75;;;;;10.90;100.00;102432.19;5067372;27;45504;-74
2022/03/21 04:49:02;;;;;;;;;64.25;46.25;;;;;10.98;100.00;102446.59;5059566;28;45566;-74
2022/03/21 04:51:27;;;;;;;;;61.00;46.25;;;;;11.02;100.00;102456.44;5075695;28;57144;-78
2022/03/21 04:53:52;;;;;;;;;63.25;48.75;;;;;10.98;100.00;102441.31;5076076;28;45724;-74
2022/03/21 04:56:18;;;;;;;;;63.75;48.75;;;;;11.06;100.00;102453.91;5077386;28;45877;-74
2022/03/21 04:58:43;;;;;;;;;64.25;50.00;;;;;11.00;100.00;102454.56;5059535;28;45269;-74
2022/03/21 05:01:09;;;;;;;;;60.75;48.75;;;;;11.01;100.00;102446.69;5075671;28;54316;-74
2022/03/21 05:03:35;;;;;;;;;66.50;47.25;;;;;11.08;100.00;102460.13;5058468;28;55408;-75
2022/03/21 05:06:00;;;;;;;;;62.75;47.50;;;;;11.13;100.00;102472.69;5079091;27;45503;-74
2022/03/21 05:08:25;;;;;;;;;64.00;48.75;;;;;11.16;100.00;102475.41;5055635;28;45484;-78
2022/03/21 05:10:51;;;;;;;;;62.50;49.50;;;;;11.14;100.00;102460.34;5071644;28;46853;-75
2022/03/21 05:13:16;;;;;;;;;58.00;44.25;;;;;11.15;100.00;102459.50;5058430;28;45512;-74
2022/03/21 05:15:43;;;;;;;;;63.50;48.25;;;;;11.11;100.00;102455.84;5076033;28;45387;-74
2022/03/21 05:18:08;;;;;;;;;67.50;48.75;;;;;11.12;100.00;102460.28;5077113;27;45495;-74
2022/03/21 05:20:33;;;;;;;;;56.25;45.75;;;;;11.11;100.00;102461.13;5058622;28;58092;-75
2022/03/21 05:31:11;;;;;;;;;69.00;49.75;;;;;11.15;100.00;102470.97;5055598;28;45597;-74
2022/03/21 05:36:29;;;;;;;;;62.25;47.00;;;;;11.10;100.00;102463.72;5055579;28;45295;-78
2022/03/21 05:41:30;;;;;;;;;61.25;47.75;;;;;11.19;100.00;102483.47;4982078;26;45573;-75
2022/03/21 05:43:55;;;;;;;;;61.50;46.50;;;;;11.18;100.00;102484.28;5041212;28;59743;-75
2022/03/21 05:46:21;;;;;;;;;61.25;46.00;;;;;11.17;100.00;102473.66;5041537;28;45436;-74
2022/03/21 05:48:58;;;;;;;;;60.00;48.75;;;;;11.12;100.00;102462.94;5061060;28;45506;-75
2022/03/21 05:51:28;;;;;;;;;66.25;50.00;;;;;11.21;100.00;102481.75;5080353;28;45931;-74
2022/03/21 05:53:55;;;;;;;;;57.75;47.50;;;;;11.17;100.00;102471.03;5080035;28;45416;-75
2022/03/21 05:56:21;;;;;;;;;63.50;48.50;;;;;11.15;100.00;102470.09;5079139;27;45375;-75
2022/03/21 05:58:46;;;;;;;;;61.00;48.50;;;;;11.24;100.00;102491.56;5062184;28;45470;-75
2022/03/21 06:01:12;;;;;;;;;63.00;47.00;;;;;11.24;100.00;102487.16;5044608;28;45621;-73
2022/03/21 06:03:38;;;;;;;;;63.00;50.00;;;;;11.23;100.00;102488.00;5079998;28;45287;-76
2022/03/21 06:06:04;;;;;;;;;66.75;46.75;;;;;11.20;100.00;102482.63;5061998;28;45521;-76
2022/03/21 06:08:29;;;;;;;;;67.00;49.00;;;;;11.11;100.00;102482.28;5045146;28;45593;-74
2022/03/21 06:11:03;;;;;;;;;64.00;48.75;;;;;11.13;100.00;102493.84;5058196;28;46424;-74
2022/03/21 06:13:32;;;;;;;;;62.00;47.75;;;;;11.13;100.00;102501.75;5074522;28;46005;-75
2022/03/21 06:16:01;;;;;;;;;62.00;47.50;;;;;11.06;100.00;102506.75;5075382;28;45410;-74
2022/03/21 06:18:27;;;;;;;;;67.25;50.00;;;;;11.04;100.00;102508.47;5043865;28;45348;-74
2022/03/21 06:20:52;;;;;;;;;62.50;49.00;;;;;10.89;100.00;102487.66;5040363;28;46111;-75
2022/03/21 06:23:17;;;;;;;;;63.75;46.25;;;;;10.97;100.00;102512.59;5055744;28;45364;-76
2022/03/21 06:25:43;;;;;;;;;65.00;51.75;;;;;10.84;100.00;102495.41;5060291;28;50262;-75
2022/03/21 06:28:08;;;;;;;;;61.75;48.25;;;;;10.85;100.00;102505.13;5044413;28;50481;-77
2022/03/21 06:30:34;;;;;;;;;64.00;51.00;;;;;10.84;100.00;102513.91;5060318;28;56853;-75
2022/03/21 06:32:59;;;;;;;;;64.50;45.00;;;;;10.92;100.00;102533.59;5060325;28;45362;-73
2022/03/21 06:35:25;;;;;;;;;59.25;46.00;;;;;10.92;100.00;102532.69;5077555;28;53575;-73
2022/03/21 06:37:50;;;;;;;;;62.50;46.75;;;;;10.90;100.00;102537.03;5079537;27;46627;-81
2022/03/21 06:40:16;;;;;;;;;66.25;48.25;;;;;10.89;100.00;102536.13;5058830;28;48856;-75
2022/03/21 06:42:41;;;;;;;;;57.75;45.25;;;;;10.94;100.00;102542.47;5059116;28;56504;-77
2022/03/21 06:45:07;;;;;;;;;64.25;50.75;;;;;10.93;100.00;102538.03;5059625;28;45367;-75
2022/03/21 06:47:32;;;;;;;;;64.00;48.25;;;;;10.97;100.00;102542.59;5092365;27;45668;-75
2022/03/21 06:49:58;;;;;;;;;65.00;50.50;;;;;11.11;100.00;102558.06;5078873;28;45482;-75
2022/03/21 06:52:23;;;;;;;;;64.00;49.00;;;;;11.13;100.00;102554.63;5078639;28;53860;-75
2022/03/21 06:54:49;;;;;;;;;62.00;49.75;;;;;11.20;100.00;102556.66;5078239;28;45662;-74
2022/03/21 06:57:17;;;;;;;;;64.75;49.25;;;;;11.16;100.00;102544.16;5077653;28;45474;-75
2022/03/21 06:59:47;;;;;;;;;62.75;49.75;;;;;11.26;100.00;102554.22;5078585;27;46573;-78
2022/03/21 07:02:13;;;;;;;;;66.75;50.75;;;;;11.33;100.00;102562.38;5052073;28;45475;-75
2022/03/21 07:04:38;;;;;;;;;64.25;50.25;;;;;11.30;100.00;102547.31;5046651;28;45472;-74
2022/03/21 07:07:03;;;;;;;;;66.25;50.00;;;;;11.42;100.00;102568.00;5053394;28;45567;-73
2022/03/21 07:09:29;;;;;;;;;62.75;49.25;;;;;11.47;100.00;102555.81;5076996;28;45612;-73
2022/03/21 07:11:54;;;;;;;;;68.75;51.00;;;;;11.57;100.00;102567.63;5059026;28;45469;-74
2022/03/21 07:14:20;;;;;;;;;67.50;49.25;;;;;11.58;100.00;102556.19;5052542;28;56936;-73
2022/03/21 07:16:45;;;;;;;;;68.00;49.50;;;;;11.75;100.00;102581.47;5076623;28;45346;-73
2022/03/21 07:19:11;;;;;;;;;64.75;48.50;;;;;11.83;100.00;102576.50;5074911;27;45930;-76
2022/03/21 07:21:36;;;;;;;;;66.25;51.00;;;;;11.88;100.00;102573.16;5085900;27;45549;-75
2022/03/21 07:24:02;;;;;;;;;63.75;49.25;;;;;11.87;100.00;102550.16;5060476;27;45484;-75
2022/03/21 07:26:27;;;;;;;;;64.50;48.25;;;;;12.04;100.00;102569.28;5057163;27;45514;-77
2022/03/21 07:28:53;;;;;;;;;64.50;49.50;;;;;12.12;100.00;102574.81;5058265;28;56293;-77
2022/03/21 07:31:18;;;;;;;;;70.00;55.00;;;;;12.16;100.00;102567.00;5076263;27;57324;-76
2022/03/21 07:33:43;;;;;;;;;65.50;50.75;;;;;12.23;100.00;102562.81;5077587;27;45834;-73
2022/03/21 07:36:10;;;;;;;;;68.50;51.50;;;;;12.31;100.00;102566.63;5081568;27;45373;-74
2022/03/21 07:38:36;;;;;;;;;66.00;50.50;;;;;12.40;100.00;102571.28;5080115;27;47600;-74
2022/03/21 07:41:02;;;;;;;;;61.50;48.75;;;;;12.45;100.00;102575.88;5059151;27;45529;-73
2022/03/21 07:43:27;;;;;;;;;65.50;47.75;;;;;12.53;100.00;102566.44;5071635;27;45545;-73
2022/03/21 07:48:37;;;;;;;;;68.00;51.00;;;;;12.71;100.00;102570.47;5081045;27;45335;-75
2022/03/21 07:51:04;;;;;;;;;67.00;52.25;;;;;12.73;100.00;102556.44;5079425;27;47242;-74
2022/03/21 07:53:30;;;;;;;;;64.50;50.50;;;;;12.85;100.00;102569.16;5077104;27;45747;-75
2022/03/21 07:55:56;;;;;;;;;68.25;51.25;;;;;12.91;100.00;102571.06;5078054;27;45551;-75
2022/03/21 07:58:22;;;;;;;;;62.25;49.25;;;;;13.04;100.00;102579.41;5056991;28;46714;-75
2022/03/21 08:00:48;;;;;;;;;63.25;50.25;;;;;13.14;100.00;102577.94;5057008;28;45585;-77
2022/03/21 08:03:15;;;;;;;;;70.75;52.00;;;;;13.19;100.00;102570.09;5075782;27;57648;-75
2022/03/21 08:05:41;;;;;;;;;67.75;51.50;;;;;13.20;100.00;102564.84;5087637;27;45551;-75
2022/03/21 08:08:07;;;;;;;;;67.75;50.00;;;;;13.37;100.00;102581.28;5069395;27;47218;-75
2022/03/21 08:10:33;;;;;;;;;63.75;50.75;;;;;13.43;100.00;102575.25;5079102;27;45474;-76
2022/03/21 08:12:58;;;;;;;;;66.25;52.50;;;;;13.48;100.00;102581.56;5072157;27;45453;-75
2022/03/21 08:15:23;;;;;;;;;62.50;49.50;;;;;13.56;100.00;102580.00;5074766;27;51438;-76
2022/03/21 08:18:03;;;;;;;;;64.00;50.00;;;;;13.66;100.00;102576.75;5088828;27;59582;-74
2022/03/21 08:20:33;;;;;;;;;62.50;49.50;;;;;13.73;100.00;102567.16;5065406;27;45553;-75
2022/03/21 08:22:59;;;;;;;;;69.75;51.75;;;;;13.88;100.00;102573.78;5061446;27;45363;-75
2022/03/21 08:25:26;;;;;;;;;67.25;50.75;;;;;14.03;100.00;102565.28;5064491;27;45505;-78
2022/03/21 08:27:51;;;;;;;;;68.00;51.00;;;;;14.12;100.00;102570.84;5076191;27;47003;-75
2022/03/21 08:30:17;;;;;;;;;66.00;51.25;;;;;14.08;100.00;102541.50;5078996;27;45386;-76
2022/03/21 08:32:43;;;;;;;;;68.50;52.50;;;;;14.33;100.00;102572.22;5073825;27;45416;-76
2022/03/21 08:35:09;;;;;;;;;63.50;48.50;;;;;14.36;100.00;102573.16;5076477;27;45701;-76
2022/03/21 08:37:35;;;;;;;;;62.75;48.50;;;;;14.36;100.00;102578.47;5048260;28;48417;-74
2022/03/21 08:40:01;;;;;;;;;55.75;45.75;;;;;14.32;100.00;102573.06;5075129;27;45335;-74
2022/03/21 08:42:29;;;;;;;;;55.50;42.50;;;;;14.25;100.00;102569.38;5076053;27;45620;-75
2022/03/21 08:44:54;;;;;;;;;45.00;38.00;;;;;14.20;100.00;102564.81;5075292;27;46535;-75
2022/03/21 08:47:20;;;;;;;;;54.00;42.25;;;;;14.22;100.00;102579.00;5061087;27;46238;-74
2022/03/21 08:49:45;;;;;;;;;56.00;41.75;;;;;14.32;100.00;102578.38;5060609;28;59301;-74
2022/03/21 08:52:11;;;;;;;;;51.00;40.75;;;;;14.42;100.00;102580.38;5079746;27;45550;-74
2022/03/21 08:54:36;;;;;;;;;53.00;42.25;;;;;14.56;100.00;102572.78;5078108;27;50016;-74
2022/03/21 08:57:04;;;;;;;;;51.50;39.75;;;;;14.66;100.00;102573.00;5076413;27;45681;-75
2022/03/21 08:59:30;;;;;;;;;51.25;39.50;;;;;14.77;100.00;102578.56;5080842;27;45465;-75
2022/03/21 09:01:55;;;;;;;;;51.00;36.50;;;;;14.82;100.00;102571.59;5085298;27;45501;-75
2022/03/21 09:04:21;;;;;;;;;47.00;38.50;;;;;14.88;100.00;102573.47;5085177;27;45213;-73
2022/03/21 09:06:46;;;;;;;;;54.50;42.00;;;;;14.98;100.00;102572.81;5076941;27;45609;-74
2022/03/21 09:09:11;;;;;;;;;46.50;37.00;;;;;15.10;100.00;102567.72;5075155;27;58958;-75
2022/03/21 09:11:40;;;;;;;;;48.25;36.00;;;;;15.22;100.00;102575.03;5061542;27;47778;-74
2022/03/21 09:14:08;;;;;;;;;50.25;40.25;;;;;15.29;100.00;102561.00;5085517;27;45635;-73
2022/03/21 09:16:33;;;;;;;;;39.00;33.75;;;;;15.42;100.00;102560.34;5075615;27;46973;-74
2022/03/21 09:18:59;;;;;;;;;44.75;37.00;;;;;15.50;100.00;102568.50;5073600;27;45498;-74
2022/03/21 09:21:24;;;;;;;;;40.25;35.00;;;;;15.54;100.00;102564.13;5074752;27;56734;-74
2022/03/21 09:23:50;;;;;;;;;49.75;40.75;;;;;15.50;100.00;102551.59;5074901;27;45434;-74
2022/03/21 09:26:15;;;;;;;;;41.00;35.25;;;;;15.56;100.00;102565.06;5076080;27;46487;-74
2022/03/21 09:28:42;;;;;;;;;41.25;34.00;;;;;15.43;100.00;102540.84;5075129;27;45990;-73
2022/03/21 09:31:07;;;;;;;;;46.00;37.75;;;;;15.46;100.00;102564.00;5056265;27;45463;-74
2022/03/21 09:33:33;;;;;;;;;35.50;32.75;;;;;15.12;100.00;102517.19;5070645;27;45540;-75
2022/03/21 09:35:59;;;;;;;;;39.25;33.50;;;;;15.34;100.00;102561.06;5074703;27;46433;-74
2022/03/21 09:38:24;;;;;;;;;43.25;37.75;;;;;15.23;100.00;102536.03;5075000;27;45453;-75
2022/03/21 09:40:50;;;;;;;;;43.50;34.00;;;;;15.30;100.00;102564.56;5057521;27;46555;-74
2022/03/21 09:43:15;;;;;;;;;37.25;31.25;;;;;15.27;100.00;102560.06;5073347;27;51951;-76
2022/03/21 09:45:41;;;;;;;;;39.25;31.25;;;;;15.27;100.00;102565.38;5077749;27;55804;-73
2022/03/21 09:48:09;;;;;;;;;33.75;28.75;;;;;15.13;100.00;102537.63;5043523;28;45484;-75
2022/03/21 09:50:40;;;;;;;;;29.50;26.75;;;;;15.18;100.00;102544.84;5076891;27;45513;-76
2022/03/21 09:53:09;;;;;;;;;34.50;28.75;;;;;15.17;100.00;102543.03;5056629;28;45617;-74
2022/03/21 09:55:35;;;;;;;;;32.75;27.50;;;;;15.22;100.00;102553.75;5072557;27;46668;-76
2022/03/21 09:58:01;;;;;;;;;24.50;24.25;;;;;15.26;100.00;102552.06;5073175;27;45405;-75
2022/03/21 10:00:27;;;;;;;;;29.33;26.00;;;;;15.27;100.00;102549.41;5072417;27;45476;-75
2022/03/21 10:02:53;;;;;;;;;29.67;24.00;;;;;15.30;100.00;102548.59;5055927;28;50748;-75
2022/03/21 10:05:55;;;;;;;;;29.00;24.00;;;;;15.35;100.00;102552.25;5072216;27;46656;-75
2022/03/21 10:08:24;;;;;;;;;25.67;22.33;;;;;15.34;100.00;102551.34;5056766;27;45897;-76
2022/03/21 10:11:10;;;;;;;;;26.67;21.33;;;;;15.41;100.00;102549.69;5074244;27;45494;-78
2022/03/21 10:13:37;;;;;;;;;28.33;25.33;;;;;15.41;100.00;102541.72;5068208;27;52811;-75
2022/03/21 10:16:13;;;;;;;;;26.67;24.00;;;;;15.44;100.00;102547.97;5056706;28;48313;-77
2022/03/21 10:18:57;;;;;;;;;27.33;23.00;;;;;15.50;100.00;102546.28;5067442;27;45491;-77
2022/03/21 10:21:27;;;;;;;;;24.00;21.67;;;;;15.50;100.00;102541.88;5074130;27;45461;-74
2022/03/21 10:24:06;;;;;;;;;28.67;22.33;;;;;15.51;100.00;102545.44;5074812;27;45620;-75
2022/03/21 10:26:36;;;;;;;;;24.00;21.00;;;;;15.57;100.00;102549.09;5074024;27;47309;-75
2022/03/21 10:29:02;;;;;;;;;24.00;20.00;;;;;15.61;100.00;102536.75;5053883;27;46874;-75
2022/03/21 10:31:41;;;;;;;;;20.00;18.00;;;;;15.60;100.00;102522.50;5054252;28;45273;-77
2022/03/21 10:34:15;;;;;;;;;19.00;19.00;;;;;15.70;100.00;102535.16;5073220;27;45297;-75
2022/03/21 10:37:00;;;;;;;;;27.00;25.33;;;;;15.77;100.00;102537.94;5062286;27;47863;-76
2022/03/21 10:39:25;;;;;;;;;27.00;26.00;;;;;15.76;100.00;102530.81;5080925;27;46893;-75
2022/03/21 10:41:58;;;;;;;;;29.00;25.33;;;;;15.83;100.00;102519.41;5080480;27;45390;-74
2022/03/21 10:44:24;;;;;;;;;24.00;20.67;;;;;15.90;100.00;102522.19;5073448;27;45977;-77
2022/03/21 10:46:53;;;;;;;;;33.00;27.00;;;;;15.94;100.00;102515.13;5055284;28;47527;-76
2022/03/21 10:49:45;;;;;;;;;26.67;24.67;;;;;16.03;100.00;102533.91;5040629;27;45600;-76
2022/03/21 10:52:18;;;;;;;;;25.00;21.00;;;;;16.08;100.00;102520.66;5051474;28;45536;-75
2022/03/21 10:54:50;;;;;;;;;24.00;24.00;;;;;16.13;100.00;102519.84;5073197;27;45394;-76
2022/03/21 10:57:31;;;;;;;;;35.25;27.00;;;;;16.17;100.00;102520.81;5063200;27;46757;-74
2022/03/21 11:00:20;;;;;;;;;21.33;18.33;;;;;16.27;100.00;102520.06;5062028;28;45411;-76
2022/03/21 11:03:05;;;;;;;;;24.00;17.67;;;;;16.35;100.00;102522.84;5065535;27;45592;-78
2022/03/21 11:05:33;;;;;;;;;25.00;21.67;;;;;16.37;100.00;102515.78;5083524;27;45638;-76
2022/03/21 11:07:58;;;;;;;;;20.00;18.00;;;;;16.34;100.00;102492.63;5063931;28;47030;-76
2022/03/21 11:10:24;;;;;;;;;19.67;17.67;;;;;16.50;100.00;102507.94;5080043;27;45227;-75
2022/03/21 11:12:50;;;;;;;;;17.00;16.33;;;;;16.49;100.00;102491.94;5080314;27;45489;-74
2022/03/21 11:15:16;;;;;;;;;19.33;18.00;;;;;16.60;100.00;102502.75;5078779;27;45909;-76
2022/03/21 11:17:42;;;;;;;;;18.33;15.00;;;;;16.67;100.00;102500.19;5085240;27;46589;-77
2022/03/21 11:20:09;;;;;;;;;24.00;18.00;;;;;16.73;100.00;102497.63;5056334;27;45387;-78